createdAt,value
2018-11-27T00:05:02.531Z,95.80
2018-11-27T00:10:08.730Z,95.80
2018-11-27T00:15:12.559Z,95.80
2018-11-27T00:20:15.691Z,95.60
2018-11-27T00:25:19.036Z,95.70
2018-11-27T00:30:22.323Z,95.60
2018-11-27T00:35:25.442Z,95.50
2018-11-27T00:40:28.538Z,95.40
2018-11-27T00:45:31.663Z,95.30
2018-11-27T00:50:34.792Z,95.10
2018-11-27T00:55:37.901Z,95.20
2018-11-27T01:00:41.017Z,95.10
2018-11-27T01:05:44.114Z,95.10
2018-11-27T01:10:47.228Z,95.00
2018-11-27T01:15:50.362Z,95.00
2018-11-27T01:20:53.511Z,95.00
2018-11-27T01:25:56.621Z,95.00
2018-11-27T01:30:59.743Z,94.90
2018-11-27T01:36:02.882Z,95.00
2018-11-27T01:41:06.351Z,95.00
2018-11-27T01:46:09.459Z,94.90
2018-11-27T01:51:12.569Z,95.00
2018-11-27T01:56:15.678Z,95.10
2018-11-27T02:01:18.787Z,95.10
2018-11-27T02:06:21.902Z,95.10
2018-11-27T02:11:25.019Z,95.30
2018-11-27T02:16:28.126Z,95.20
2018-11-27T02:21:31.239Z,95.10
2018-11-27T02:26:34.366Z,95.20
2018-11-27T02:31:37.479Z,95.20
2018-11-27T02:36:40.620Z,95.30
2018-11-27T02:41:43.730Z,95.50
2018-11-27T02:46:46.870Z,95.30
2018-11-27T02:51:50.011Z,95.40
2018-11-27T02:56:53.151Z,95.40
2018-11-27T03:01:56.270Z,95.40
2018-11-27T03:06:59.383Z,95.50
2018-11-27T03:12:02.528Z,95.50
2018-11-27T03:17:05.673Z,95.50
2018-11-27T03:22:08.787Z,95.50
2018-11-27T03:27:11.903Z,95.50
2018-11-27T03:32:15.016Z,95.50
2018-11-27T03:37:18.126Z,95.60
2018-11-27T03:42:21.245Z,95.50
2018-11-27T03:47:24.366Z,95.50
2018-11-27T03:52:27.475Z,95.90
2018-11-27T03:57:30.590Z,95.70
2018-11-27T04:02:33.731Z,95.70
2018-11-27T04:07:36.854Z,95.70
2018-11-27T04:12:40.013Z,95.70
2018-11-27T04:17:43.187Z,95.80
2018-11-27T04:22:46.310Z,95.80
2018-11-27T04:27:49.448Z,95.90
2018-11-27T04:32:52.584Z,95.80
2018-11-27T04:37:55.711Z,95.90
2018-11-27T04:42:58.843Z,95.90
2018-11-27T04:48:01.957Z,96.00
2018-11-27T04:53:05.343Z,95.90
2018-11-27T04:58:08.486Z,96.00
2018-11-27T05:03:11.630Z,96.00
2018-11-27T05:08:14.757Z,96.00
2018-11-27T05:13:17.873Z,96.00
2018-11-27T05:18:20.992Z,96.00
2018-11-27T05:23:24.111Z,96.10
2018-11-27T05:28:27.230Z,96.10
2018-11-27T05:33:30.354Z,96.00
2018-11-27T05:38:33.478Z,96.00
2018-11-27T05:43:36.590Z,95.90
2018-11-27T05:48:39.710Z,96.00
2018-11-27T05:53:42.895Z,96.00
2018-11-27T05:58:46.042Z,96.10
2018-11-27T06:03:49.396Z,96.00
2018-11-27T06:08:52.678Z,96.10
2018-11-27T06:13:55.786Z,96.40
2018-11-27T06:18:58.915Z,96.30
2018-11-27T06:24:02.070Z,96.00
2018-11-27T06:29:05.410Z,96.20
2018-11-27T06:34:08.530Z,96.00
2018-11-27T06:39:11.668Z,96.00
2018-11-27T06:44:14.761Z,96.10
2018-11-27T06:49:17.881Z,96.10
2018-11-27T06:54:20.998Z,96.10
2018-11-27T06:59:24.115Z,96.10
2018-11-27T07:04:27.218Z,96.00
2018-11-27T07:09:30.375Z,95.90
2018-11-27T07:14:33.529Z,95.90
2018-11-27T07:19:36.670Z,95.90
2018-11-27T07:24:39.890Z,96.00
2018-11-27T07:29:43.012Z,95.90
2018-11-27T07:34:46.213Z,95.90
2018-11-27T07:39:49.374Z,95.90
2018-11-27T07:44:52.486Z,95.90
2018-11-27T07:49:55.618Z,95.90
2018-11-27T07:54:58.779Z,96.20
2018-11-27T08:00:01.899Z,95.80
2018-11-27T08:05:06.990Z,95.80
2018-11-27T08:10:14.481Z,95.80
2018-11-27T08:15:22.498Z,95.80
2018-11-27T08:20:27.702Z,95.70
2018-11-27T08:25:30.859Z,95.50
2018-11-27T08:30:34.011Z,95.70
2018-11-27T08:35:37.186Z,95.70
2018-11-27T08:40:40.293Z,95.80
2018-11-27T08:45:43.405Z,96.10
2018-11-27T08:50:46.523Z,95.80
2018-11-27T08:55:49.643Z,96.10
2018-11-27T09:00:52.767Z,95.70
2018-11-27T09:05:55.893Z,95.70
2018-11-27T09:10:59.003Z,95.50
2018-11-27T09:16:02.122Z,95.30
2018-11-27T09:21:05.793Z,95.20
2018-11-27T09:26:08.915Z,95.20
2018-11-27T09:31:12.055Z,94.80
2018-11-27T09:36:15.158Z,95.30
2018-11-27T09:41:18.265Z,95.00
2018-11-27T09:46:21.379Z,95.00
2018-11-27T09:51:24.504Z,95.00
2018-11-27T09:56:27.638Z,95.00
2018-11-27T10:01:30.755Z,95.10
2018-11-27T10:06:33.875Z,95.10
2018-11-27T10:11:37.396Z,94.90
2018-11-27T10:16:40.559Z,94.90
2018-11-27T10:21:43.690Z,94.90
2018-11-27T10:26:46.818Z,95.00
2018-11-27T10:31:49.932Z,94.90
2018-11-27T10:36:53.387Z,94.90
2018-11-27T10:41:56.514Z,94.80
2018-11-27T10:46:59.661Z,94.60
2018-11-27T10:52:02.778Z,95.00
2018-11-27T10:57:05.930Z,94.70
2018-11-27T11:03:18.254Z,94.60
2018-11-27T11:08:22.007Z,94.70
2018-11-27T11:13:25.171Z,94.70
2018-11-27T11:18:28.291Z,94.50
2018-11-27T11:23:31.543Z,94.40
2018-11-27T11:28:34.647Z,94.40
2018-11-27T11:33:37.798Z,94.30
2018-11-27T11:38:40.970Z,94.40
2018-11-27T11:43:44.053Z,94.40
2018-11-27T11:48:47.168Z,94.30
2018-11-27T11:53:50.278Z,94.50
2018-11-27T11:58:53.445Z,94.20
2018-11-27T12:03:56.541Z,94.20
2018-11-27T12:08:59.654Z,94.20
2018-11-27T12:14:02.810Z,94.20
2018-11-27T12:19:06.340Z,94.10
2018-11-27T12:24:09.515Z,94.10
2018-11-27T12:29:12.670Z,94.00
2018-11-27T12:34:15.785Z,94.00
2018-11-27T12:39:18.932Z,94.30
2018-11-27T12:44:22.060Z,94.10
2018-11-27T12:49:25.227Z,94.20
2018-11-27T12:59:38.003Z,94.10
2018-11-27T13:04:41.193Z,94.00
2018-11-27T13:09:44.294Z,94.00
2018-11-27T13:14:47.416Z,93.90
2018-11-27T13:19:50.530Z,93.90
2018-11-27T13:24:53.657Z,93.70
2018-11-27T13:29:56.805Z,94.00
2018-11-27T13:34:59.950Z,93.60
2018-11-27T13:40:03.075Z,93.70
2018-11-27T13:45:09.380Z,93.20
2018-11-27T13:50:14.464Z,93.20
2018-11-27T13:55:20.807Z,93.20
2018-11-27T14:00:23.946Z,93.10
2018-11-27T14:05:27.150Z,93.30
2018-11-27T14:10:30.274Z,93.30
2018-11-27T14:15:33.440Z,93.30
2018-11-27T14:20:36.755Z,93.20
2018-11-27T14:25:39.956Z,93.10
2018-11-27T14:30:43.280Z,93.00
2018-11-27T14:35:46.405Z,93.00
2018-11-27T14:40:49.504Z,93.00
2018-11-27T14:45:52.640Z,92.90
2018-11-27T14:50:55.782Z,92.90
2018-11-27T14:55:58.906Z,92.90
2018-11-27T15:01:02.043Z,93.00
2018-11-27T15:06:05.190Z,93.00
2018-11-27T15:11:12.713Z,93.00
2018-11-27T15:16:11.455Z,93.10
2018-11-27T15:21:14.590Z,93.10
2018-11-27T15:26:17.727Z,93.10
2018-11-27T15:31:20.862Z,93.10
2018-11-27T15:36:24.022Z,93.00
2018-11-27T15:41:27.248Z,93.10
2018-11-27T15:46:31.231Z,93.10
2018-11-27T15:51:34.379Z,93.10
2018-11-27T15:56:37.503Z,93.20
2018-11-27T16:01:40.685Z,93.20
2018-11-27T16:06:43.810Z,93.30
2018-11-27T16:11:46.999Z,93.20
2018-11-27T16:16:51.086Z,93.20
2018-11-27T16:21:54.193Z,93.30
2018-11-27T16:26:57.355Z,93.20
2018-11-27T16:32:00.467Z,93.20
2018-11-27T16:37:03.595Z,93.30
2018-11-27T16:42:06.738Z,93.30
2018-11-27T16:47:09.907Z,93.20
2018-11-27T16:52:13.197Z,93.20
2018-11-27T16:57:16.370Z,93.10
2018-11-27T17:02:19.543Z,93.10
2018-11-27T17:07:22.718Z,93.00
2018-11-27T17:12:26.093Z,93.00
2018-11-27T17:17:29.198Z,93.20
2018-11-27T17:22:32.330Z,92.90
2018-11-27T17:27:35.451Z,92.90
2018-11-27T17:32:38.571Z,92.90
2018-11-27T17:37:41.690Z,92.90
2018-11-27T17:42:44.795Z,92.80
2018-11-27T17:47:48.000Z,92.80
2018-11-27T17:52:51.278Z,92.70
2018-11-27T17:57:54.422Z,92.60
2018-11-27T18:03:01.242Z,92.50
2018-11-27T18:08:04.822Z,92.40
2018-11-27T18:13:07.978Z,92.50
2018-11-27T18:18:11.107Z,92.60
2018-11-27T18:23:14.276Z,92.60
2018-11-27T18:28:17.388Z,92.70
2018-11-27T18:33:20.530Z,92.60
2018-11-27T18:38:23.647Z,92.50
2018-11-27T18:43:26.767Z,92.50
2018-11-27T18:48:29.891Z,92.50
2018-11-27T18:53:33.067Z,92.50
2018-11-27T18:58:36.272Z,92.50
2018-11-27T19:03:42.289Z,92.40
2018-11-27T19:08:45.495Z,92.40
2018-11-27T19:13:48.599Z,92.40
2018-11-27T19:18:51.707Z,92.30
2018-11-27T19:23:54.910Z,92.30
2018-11-27T19:28:57.992Z,92.20
2018-11-27T19:34:01.131Z,92.20
2018-11-27T19:39:05.727Z,92.30
2018-11-27T19:44:08.847Z,92.30
2018-11-27T19:49:12.005Z,92.30
2018-11-27T19:54:15.121Z,92.30
2018-11-27T19:59:18.311Z,92.30
2018-11-27T20:04:22.015Z,92.30
2018-11-27T20:09:25.114Z,92.30
2018-11-27T20:14:28.229Z,92.30
2018-11-27T20:19:31.404Z,92.20
2018-11-27T20:24:34.508Z,92.10
2018-11-27T20:29:37.642Z,92.00
2018-11-27T20:34:40.929Z,92.00
2018-11-27T20:39:44.159Z,92.00
2018-11-27T20:44:47.291Z,92.10
2018-11-27T20:49:50.423Z,92.10
2018-11-27T20:54:53.591Z,92.20
2018-11-27T20:59:56.731Z,92.30
2018-11-27T21:04:59.864Z,92.20
2018-11-27T21:10:03.730Z,92.30
2018-11-27T21:15:10.509Z,92.30
2018-11-27T21:20:14.577Z,92.40
2018-11-27T21:25:24.602Z,92.40
2018-11-27T21:30:27.770Z,92.40
2018-11-27T21:35:30.899Z,92.40
2018-11-27T21:40:34.579Z,92.40
2018-11-27T21:45:37.800Z,92.40
2018-11-27T21:50:42.738Z,92.40
2018-11-27T21:55:45.850Z,92.40
2018-11-27T22:00:48.958Z,92.40
2018-11-27T22:05:53.156Z,92.40
2018-11-27T22:10:56.270Z,92.50
2018-11-27T22:15:59.416Z,92.80
2018-11-27T22:21:03.237Z,92.50
2018-11-27T22:26:06.350Z,92.50
2018-11-27T22:31:09.492Z,92.40
2018-11-27T22:36:12.675Z,92.40
2018-11-27T22:41:15.782Z,92.40
2018-11-27T22:46:18.895Z,92.30
2018-11-27T22:51:21.998Z,92.20
2018-11-27T22:56:25.096Z,92.30
2018-11-27T23:01:28.209Z,92.30
2018-11-27T23:06:31.407Z,92.30
2018-11-27T23:11:34.628Z,92.20
2018-11-27T23:16:37.898Z,92.30
2018-11-27T23:21:41.010Z,92.30
2018-11-27T23:26:44.119Z,92.60
2018-11-27T23:31:47.238Z,92.30
2018-11-27T23:36:50.355Z,92.30
2018-11-27T23:41:53.469Z,92.30
2018-11-27T23:46:57.388Z,92.30
2018-11-27T23:52:00.512Z,92.20
2018-11-27T23:57:03.852Z,92.10
